createdAt,value
2022-11-20T07:41:43.546Z,98251.91
2022-11-20T07:44:54.220Z,98250.97
2022-11-20T07:48:04.994Z,98258.72
2022-11-20T07:51:15.704Z,98265.88
2022-11-20T07:54:26.545Z,98267.66
2022-11-20T07:57:38.424Z,98263.19
2022-11-20T08:00:49.219Z,98268.25
2022-11-20T08:03:59.985Z,98274.03
2022-11-20T08:07:10.619Z,98275.97
2022-11-20T08:10:21.459Z,98281.19
2022-11-20T08:13:45.905Z,98275.78
2022-11-20T08:16:56.494Z,98276.81
2022-11-20T08:20:07.512Z,98285.34
2022-11-20T08:23:18.256Z,98289.84
2022-11-20T08:26:29.193Z,98290.91
2022-11-20T08:29:41.057Z,98290.72
2022-11-20T08:32:51.716Z,98300.09
2022-11-20T08:36:03.166Z,98299.50
2022-11-20T08:39:14.505Z,98293.81
2022-11-20T08:42:25.500Z,98294.09
2022-11-20T08:45:37.517Z,98296.19
2022-11-20T08:48:48.157Z,98306.88
2022-11-20T08:51:59.486Z,98307.44
2022-11-20T08:55:11.464Z,98300.53
2022-11-20T08:58:22.068Z,98310.22
2022-11-20T09:01:34.108Z,98301.41
2022-11-20T09:04:44.748Z,98299.63
2022-11-20T09:07:58.609Z,98296.63
2022-11-20T09:11:09.521Z,98311.00
2022-11-20T09:14:20.259Z,98301.16
2022-11-20T09:17:32.234Z,98309.03
2022-11-20T09:20:43.059Z,98311.16
2022-11-20T09:23:54.118Z,98310.31
2022-11-20T09:27:06.540Z,98310.59
2022-11-20T09:30:17.978Z,98312.19
2022-11-20T09:33:29.930Z,98313.69
2022-11-20T09:36:43.660Z,98308.13
2022-11-20T09:39:54.324Z,98303.28
2022-11-20T09:43:12.621Z,98307.28
2022-11-20T09:46:30.541Z,98309.03
2022-11-20T09:50:00.856Z,98314.97
2022-11-20T09:53:16.289Z,98312.69
2022-11-20T09:56:28.387Z,98302.09
2022-11-20T09:59:42.609Z,98294.75
2022-11-20T10:02:58.594Z,98298.78
2022-11-20T10:06:15.904Z,98296.09
2022-11-20T10:09:33.469Z,98294.34
2022-11-20T10:22:49.090Z,98270.69
2022-11-20T10:26:04.573Z,98271.50
2022-11-20T10:29:17.883Z,98267.94
2022-11-20T10:32:36.479Z,98269.84
2022-11-20T10:35:51.710Z,98262.06
2022-11-20T10:39:09.066Z,98251.63
2022-11-20T10:42:28.183Z,98252.88
2022-11-20T10:45:49.672Z,98250.38
2022-11-20T10:49:00.863Z,98250.25
2022-11-20T10:52:18.783Z,98242.31
2022-11-20T10:55:41.631Z,98233.91
2022-11-20T10:59:06.948Z,98234.19
2022-11-20T11:02:20.604Z,98232.97
2022-11-20T11:05:38.771Z,98232.50
2022-11-20T11:08:51.711Z,98222.16
2022-11-20T11:12:07.081Z,98215.31
2022-11-20T11:15:28.728Z,98211.50
2022-11-20T11:18:39.327Z,98206.16
2022-11-20T11:21:55.413Z,98204.72
2022-11-20T11:25:06.443Z,98205.72
2022-11-20T11:28:26.020Z,98200.72
2022-11-20T11:31:37.408Z,98198.41
2022-11-20T11:35:01.571Z,98199.25
2022-11-20T11:38:18.538Z,98196.16
2022-11-20T11:41:34.109Z,98193.53
2022-11-20T11:45:03.873Z,98192.66
2022-11-20T11:48:14.666Z,98187.13
2022-11-20T11:51:27.966Z,98187.56
2022-11-20T11:54:44.537Z,98185.09
2022-11-20T11:58:00.109Z,98178.72
2022-11-20T12:01:23.041Z,98174.38
2022-11-20T12:04:45.880Z,98176.41
2022-11-20T12:08:01.101Z,98178.44
2022-11-20T12:11:19.935Z,98174.19
2022-11-20T12:14:36.439Z,98160.94
2022-11-20T12:17:48.337Z,98163.75
2022-11-20T12:21:15.140Z,98164.75
2022-11-20T12:24:44.908Z,98168.63
2022-11-20T12:28:14.492Z,98161.44
2022-11-20T12:31:41.580Z,98170.44
2022-11-20T12:35:11.487Z,98164.00
2022-11-20T12:38:42.248Z,98165.09
2022-11-20T12:42:16.200Z,98173.56
2022-11-20T12:45:37.339Z,98157.41
2022-11-20T12:49:00.492Z,98155.31
2022-11-20T12:52:27.712Z,98149.63
2022-11-20T12:55:49.740Z,98146.59
2022-11-20T12:59:13.203Z,98150.81
2022-11-20T13:02:29.983Z,98143.94
2022-11-20T13:05:48.769Z,98141.69
2022-11-20T13:09:00.905Z,98132.25
2022-11-20T13:12:16.513Z,98127.41
2022-11-20T13:15:40.400Z,98124.66
2022-11-20T13:18:51.369Z,98127.25
2022-11-20T13:22:02.588Z,98114.97
2022-11-20T13:25:24.841Z,98117.38
2022-11-20T13:28:35.512Z,98117.84
2022-11-20T13:31:48.902Z,98115.63
2022-11-20T13:35:03.875Z,98101.13
2022-11-20T13:38:18.189Z,98100.81
2022-11-20T13:41:35.810Z,98101.13
2022-11-20T13:44:54.531Z,98096.47
2022-11-20T13:48:21.850Z,98091.59
2022-11-20T13:51:42.383Z,98081.19
2022-11-20T13:55:14.941Z,98083.94
2022-11-20T13:58:44.945Z,98082.28
2022-11-20T14:01:58.967Z,98074.41
2022-11-20T14:05:24.622Z,98083.66
2022-11-20T14:08:42.946Z,98077.66
2022-11-20T14:11:56.275Z,98077.88
2022-11-20T14:15:29.217Z,98075.88
2022-11-20T14:18:43.370Z,98074.63
2022-11-20T14:21:58.963Z,98071.41
2022-11-20T14:25:25.437Z,98067.19
2022-11-20T14:28:39.574Z,98061.84
2022-11-20T14:31:57.854Z,98067.63
2022-11-20T14:35:16.154Z,98064.28
2022-11-20T14:38:32.045Z,98052.28
2022-11-20T14:41:53.676Z,98047.19
2022-11-20T14:45:06.626Z,98051.16
2022-11-20T14:48:20.449Z,98043.38
2022-11-20T14:51:36.070Z,98039.50
2022-11-20T14:54:51.651Z,98043.63
2022-11-20T14:58:06.538Z,98036.50
2022-11-20T15:01:30.572Z,98032.19
2022-11-20T15:04:51.338Z,98028.28
2022-11-20T15:08:11.153Z,98036.69
2022-11-20T15:11:29.665Z,98028.91
2022-11-20T15:14:44.242Z,98024.69
2022-11-20T15:17:58.100Z,98022.88
2022-11-20T15:21:15.665Z,98022.22
2022-11-20T15:24:29.415Z,98027.13
2022-11-20T15:27:44.456Z,98022.69
2022-11-20T15:30:59.557Z,98020.22
2022-11-20T15:34:15.426Z,98029.31
2022-11-20T15:37:30.267Z,98027.78
2022-11-20T15:40:44.809Z,98024.97
2022-11-20T15:44:00.834Z,98021.66
2022-11-20T15:47:14.522Z,98023.66
2022-11-20T15:50:33.041Z,98018.94
2022-11-20T15:53:49.133Z,98012.16
2022-11-20T15:57:06.967Z,98009.06
2022-11-20T16:00:23.901Z,98008.31
2022-11-20T16:03:39.004Z,98004.13
2022-11-20T16:06:52.667Z,97995.91
2022-11-20T16:10:08.669Z,97998.25
2022-11-20T16:13:32.211Z,97990.69
2022-11-20T16:16:44.735Z,97985.94
2022-11-20T16:19:55.901Z,97974.16
2022-11-20T16:23:07.605Z,97979.38
2022-11-20T16:26:21.993Z,97972.56
2022-11-20T16:29:33.126Z,97974.34
2022-11-20T16:32:44.420Z,97972.38
2022-11-20T16:35:55.422Z,97963.06
2022-11-20T16:39:06.988Z,97962.13
2022-11-20T16:42:19.547Z,97954.16
2022-11-20T16:45:33.922Z,97949.06
2022-11-20T16:48:45.674Z,97945.56
2022-11-20T16:51:56.849Z,97937.91
2022-11-20T16:55:08.576Z,97937.53
2022-11-20T16:58:21.510Z,97933.44
2022-11-20T17:01:33.183Z,97934.22
2022-11-20T17:04:44.613Z,97926.56
2022-11-20T17:07:55.911Z,97925.03
2022-11-20T17:11:08.138Z,97920.63
2022-11-20T17:14:21.347Z,97915.25
2022-11-20T17:17:33.062Z,97913.97
2022-11-20T17:20:44.390Z,97910.78
2022-11-20T17:23:55.738Z,97901.38
2022-11-20T17:27:06.946Z,97906.88
2022-11-20T17:30:19.860Z,97901.69
2022-11-20T17:33:31.760Z,97906.31
2022-11-20T17:36:46.033Z,97898.66
2022-11-20T17:39:57.368Z,97898.03
2022-11-20T17:43:08.536Z,97901.38
2022-11-20T17:46:23.758Z,97902.44
2022-11-20T17:49:35.038Z,97899.88
2022-11-20T17:52:46.449Z,97889.84
2022-11-20T17:56:08.814Z,97883.19
2022-11-20T17:59:20.441Z,97886.97
2022-11-20T18:02:33.229Z,97883.19
2022-11-20T18:05:44.393Z,97879.41
2022-11-20T18:08:55.555Z,97876.84
2022-11-20T18:12:07.237Z,97876.66
2022-11-20T18:15:18.607Z,97881.31
2022-11-20T18:18:31.163Z,97883.97
2022-11-20T18:21:42.458Z,97882.84
2022-11-20T18:24:53.884Z,97876.25
2022-11-20T18:28:05.082Z,97868.59
2022-11-20T18:31:16.283Z,97870.69
2022-11-20T18:34:29.285Z,97873.25
2022-11-20T18:37:41.207Z,97863.06
2022-11-20T18:40:52.751Z,97860.06
2022-11-20T18:44:16.173Z,97857.13
2022-11-20T18:47:30.852Z,97856.50
2022-11-20T18:50:43.745Z,97853.38
2022-11-20T18:53:58.181Z,97861.59
2022-11-20T18:57:10.999Z,97849.84
2022-11-20T19:00:22.240Z,97846.31
2022-11-20T19:03:33.667Z,97850.97
2022-11-20T19:06:49.612Z,97844.03
2022-11-20T19:10:03.940Z,97836.16
2022-11-20T19:13:15.725Z,97846.47
2022-11-20T19:16:27.738Z,97833.84
2022-11-20T19:19:39.542Z,97839.66
2022-11-20T19:22:54.033Z,97828.81
2022-11-20T19:26:06.066Z,97832.25
2022-11-20T19:29:18.467Z,97839.13
2022-11-20T19:32:31.898Z,97836.69
2022-11-20T19:35:43.195Z,97833.75
2022-11-20T19:38:55.984Z,97843.94
2022-11-20T19:42:07.344Z,97840.88
2022-11-20T19:45:18.654Z,97836.22
2022-11-20T19:48:32.279Z,97831.56
2022-11-20T19:51:48.373Z,97820.03
2022-11-20T19:55:01.089Z,97817.50
2022-11-20T19:58:12.418Z,97807.13
2022-11-20T20:01:25.979Z,97819.84
2022-11-20T20:04:37.425Z,97823.66
2022-11-20T20:07:48.579Z,97820.19
2022-11-20T20:11:01.282Z,97819.66
2022-11-20T20:14:16.452Z,97818.59
2022-11-20T20:17:27.662Z,97816.53
2022-11-20T20:20:38.834Z,97810.53
2022-11-20T20:23:53.073Z,97819.88
2022-11-20T20:27:06.629Z,97831.09
2022-11-20T20:30:17.812Z,97832.94
2022-11-20T20:33:29.186Z,97821.81
2022-11-20T20:36:40.452Z,97823.06
2022-11-20T20:39:51.508Z,97819.53
2022-11-20T20:43:03.875Z,97822.59
